Terminal Aerodrome Forecast
Issued by NWS

Home | Current Version | Previous Version | Text Only | Print | Product List | Glossary On
Versions: 1 2 3 4 5 6 7 8 9 10 11 12 13 14 15 16 17 18 19 20
994
FTUS46 KSEW 261733
TAFBLI
TAF
KBLI 261733Z 2618/2718 14010KT P6SM -RA BKN035 OVC050
     FM262300 15012KT 5SM -RA BR OVC030
     FM270200 16012KT P6SM -SHRA BKN030 OVC050
     FM270600 17010KT P6SM VCSH BKN035 BKN050
     FM271200 16010KT P6SM -SHRA BKN030 BKN045=

USA.gov is the U.S. government's official web portal to all federal, state and local government web resources and services.